Time;durP1;ratioP1;P1;durP2;ratioP2;P2;SDS_P1;SDS_P2;PMS_P1;PMS_P2;Temp;Humidity;BMP_temperature;BMP_pressure;BME280_temperature;BME280_humidity;BME280_pressure;Samples;Min_cycle;Max_cycle;Signal;HPM_P1;HPM_P2
2022/03/30 00:00:10;;;;;;;20.15;15.18;;;;;;;10.83;54.62;97679.28;4978847;28;20760;-63
2022/03/30 00:02:36;;;;;;;21.88;13.95;;;;;;;11.02;54.91;97725.69;4983316;28;20899;-64
2022/03/30 00:05:02;;;;;;;22.25;15.38;;;;;;;10.98;55.05;97715.78;4984096;28;20069;-66
2022/03/30 00:07:31;;;;;;;21.38;14.23;;;;;;;10.96;55.16;97705.56;4983824;28;20116;-64
2022/03/30 00:10:00;;;;;;;22.77;15.18;;;;;;;10.82;54.87;97694.06;4983629;28;20120;-65
2022/03/30 00:12:26;;;;;;;22.58;14.13;;;;;;;11.02;55.79;97714.47;4977790;28;20137;-65
2022/03/30 00:14:51;;;;;;;23.35;14.65;;;;;;;11.00;55.68;97712.03;4993678;28;20046;-64
2022/03/30 00:17:17;;;;;;;25.65;15.80;;;;;;;11.07;55.54;97705.19;4982505;28;20439;-64
2022/03/30 00:19:43;;;;;;;25.55;15.82;;;;;;;11.00;55.27;97703.44;4973838;28;20366;-63
2022/03/30 00:22:09;;;;;;;23.13;15.38;;;;;;;10.87;55.82;97702.19;4974459;28;20486;-65
2022/03/30 00:24:35;;;;;;;23.17;16.25;;;;;;;10.91;55.62;97698.25;4983910;28;20034;-65
2022/03/30 00:27:02;;;;;;;24.92;15.63;;;;;;;10.86;55.60;97702.34;4994632;28;20038;-64
2022/03/30 00:29:28;;;;;;;25.58;16.80;;;;;;;10.84;56.44;97699.09;4985464;28;20038;-64
2022/03/30 00:31:53;;;;;;;27.50;17.20;;;;;;;10.70;56.49;97669.44;4980713;28;20033;-66
2022/03/30 00:34:19;;;;;;;26.13;16.58;;;;;;;10.87;56.61;97696.97;4987573;28;20034;-64
2022/03/30 00:36:44;;;;;;;25.42;16.70;;;;;;;10.62;56.85;97646.03;4984200;28;20057;-62
2022/03/30 00:39:10;;;;;;;25.67;16.08;;;;;;;10.66;56.79;97688.91;4962010;28;20059;-64
2022/03/30 00:41:35;;;;;;;21.15;15.90;;;;;;;10.65;56.88;97688.13;4985727;28;20546;-65
2022/03/30 00:44:11;;;;;;;23.50;16.35;;;;;;;10.73;56.52;97675.09;4972557;28;20034;-64
2022/03/30 00:46:37;;;;;;;25.52;17.20;;;;;;;10.82;56.47;97678.47;4981554;28;20497;-63
2022/03/30 00:49:04;;;;;;;24.42;16.48;;;;;;;10.85;56.87;97672.13;4983677;28;20082;-63
2022/03/30 00:51:30;;;;;;;23.67;16.75;;;;;;;10.76;56.47;97673.94;4986226;28;20054;-62
2022/03/30 00:53:55;;;;;;;26.05;16.13;;;;;;;10.54;57.66;97671.09;5000448;28;20089;-64
2022/03/30 00:56:21;;;;;;;27.58;16.92;;;;;;;10.43;57.45;97665.44;4984946;28;20057;-63
2022/03/30 00:58:46;;;;;;;27.08;16.10;;;;;;;10.54;56.99;97676.28;5000680;28;20136;-62
2022/03/30 01:01:12;;;;;;;22.70;16.13;;;;;;;10.36;56.95;97623.72;4983863;28;20077;-64
2022/03/30 01:03:37;;;;;;;25.30;16.77;;;;;;;10.61;57.10;97655.66;4986327;28;20034;-63
2022/03/30 01:06:03;;;;;;;24.42;16.70;;;;;;;10.66;57.48;97663.75;4969823;28;20026;-63
2022/03/30 01:08:28;;;;;;;24.60;15.98;;;;;;;10.59;56.94;97657.59;4984118;28;20040;-63
2022/03/30 01:10:54;;;;;;;22.90;16.23;;;;;;;10.56;56.99;97665.72;4988801;28;20030;-63
2022/03/30 01:13:19;;;;;;;23.27;16.48;;;;;;;10.40;57.36;97658.78;4984845;28;20038;-64
2022/03/30 01:15:46;;;;;;;20.92;16.40;;;;;;;10.08;57.62;97615.50;4985255;28;20113;-63
2022/03/30 01:18:12;;;;;;;26.00;16.52;;;;;;;10.38;57.44;97645.16;4965112;28;20039;-64
2022/03/30 01:20:38;;;;;;;25.63;16.10;;;;;;;10.38;57.97;97643.34;4985878;28;20449;-63
2022/03/30 01:23:03;;;;;;;23.17;16.52;;;;;;;10.31;58.44;97639.00;4982751;28;20165;-63
2022/03/30 01:25:29;;;;;;;25.88;16.42;;;;;;;10.38;57.84;97632.97;4970890;28;20117;-63
2022/03/30 01:27:55;;;;;;;23.58;16.23;;;;;;;10.38;58.04;97621.75;4985942;28;20030;-63
2022/03/30 01:33:06;;;;;;;27.65;16.17;;;;;;;10.05;58.41;97580.25;4984216;28;20085;-64
2022/03/30 01:35:32;;;;;;;23.35;16.50;;;;;;;10.22;59.11;97613.97;4975325;28;20037;-64
2022/03/30 01:37:58;;;;;;;27.50;17.38;;;;;;;10.30;59.38;97606.97;4976699;28;20089;-64
2022/03/30 01:40:23;;;;;;;26.48;16.00;;;;;;;10.29;58.75;97602.75;4970150;28;20043;-65
2022/03/30 01:42:49;;;;;;;26.52;16.45;;;;;;;10.22;59.06;97606.19;5011861;28;20057;-63
2022/03/30 01:45:16;;;;;;;25.75;17.40;;;;;;;10.20;59.43;97599.38;4983288;28;20776;-63
2022/03/30 01:47:48;;;;;;;24.10;16.30;;;;;;;10.20;59.04;97601.16;4984160;28;20046;-65
2022/03/30 01:50:14;;;;;;;23.70;16.55;;;;;;;10.11;59.27;97583.97;4984154;28;20775;-63
2022/03/30 01:52:39;;;;;;;24.00;17.05;;;;;;;10.17;59.10;97588.53;4977515;28;20084;-64
2022/03/30 01:55:06;;;;;;;23.55;16.75;;;;;;;10.17;59.21;97585.94;4985454;28;20341;-64
2022/03/30 01:57:31;;;;;;;24.58;15.43;;;;;;;9.54;59.03;97478.50;4985077;28;20042;-63
2022/03/30 01:59:56;;;;;;;24.23;14.25;;;;;;;10.20;59.25;97575.19;4976099;28;20089;-65
2022/03/30 02:02:22;;;;;;;22.30;15.38;;;;;;;10.09;59.63;97578.94;4982114;28;20101;-64
2022/03/30 02:04:47;;;;;;;25.95;15.55;;;;;;;10.00;59.51;97585.13;4980054;28;20403;-65
2022/03/30 02:07:13;;;;;;;26.35;15.57;;;;;;;10.05;59.45;97582.84;4990994;28;20049;-64
2022/03/30 02:09:39;;;;;;;19.70;13.05;;;;;;;9.91;59.73;97586.13;4978197;28;20030;-64
2022/03/30 02:12:05;;;;;;;20.65;13.40;;;;;;;9.90;59.40;97590.53;4973255;28;20035;-61
2022/03/30 02:14:31;;;;;;;18.15;12.32;;;;;;;9.86;59.39;97589.25;4966633;28;20116;-63
2022/03/30 02:16:56;;;;;;;19.00;12.48;;;;;;;9.77;58.71;97544.31;4976321;28;20038;-65
2022/03/30 02:19:22;;;;;;;21.20;12.27;;;;;;;10.07;58.50;97583.50;4999718;28;20022;-63
2022/03/30 02:21:47;;;;;;;19.00;11.95;;;;;;;9.95;58.96;97577.06;4982976;28;20150;-64
2022/03/30 02:24:13;;;;;;;19.73;12.52;;;;;;;9.73;59.13;97545.63;4993828;28;20045;-64
2022/03/30 02:26:38;;;;;;;17.77;13.45;;;;;;;10.04;59.79;97570.03;4983523;28;20152;-63
2022/03/30 02:29:04;;;;;;;19.63;13.32;;;;;;;9.93;59.41;97572.03;4983166;28;20034;-63
2022/03/30 02:31:30;;;;;;;22.10;13.88;;;;;;;9.92;59.74;97572.19;4982031;28;20042;-64
2022/03/30 02:33:55;;;;;;;20.27;13.68;;;;;;;9.94;59.55;97578.03;4974473;28;20034;-63
2022/03/30 02:36:21;;;;;;;21.27;14.77;;;;;;;9.91;59.75;97562.75;4981988;28;20034;-64
2022/03/30 02:38:47;;;;;;;20.85;13.68;;;;;;;10.07;59.04;97565.31;4983454;28;20065;-64
2022/03/30 02:41:12;;;;;;;21.10;13.88;;;;;;;9.97;59.65;97567.31;4983256;28;20033;-63
2022/03/30 02:43:38;;;;;;;22.40;13.98;;;;;;;10.04;59.22;97570.88;4981113;28;20477;-66
2022/03/30 02:46:04;;;;;;;23.67;14.43;;;;;;;9.72;59.57;97518.03;4982699;28;20041;-66
2022/03/30 02:48:32;;;;;;;18.45;13.20;;;;;;;9.91;60.11;97565.34;4981832;28;20037;-63
2022/03/30 02:51:00;;;;;;;21.08;12.95;;;;;;;9.92;59.92;97569.59;4984845;28;20072;-65
2022/03/30 02:53:25;;;;;;;21.42;13.70;;;;;;;9.53;59.88;97528.78;4981948;28;20030;-64
2022/03/30 02:55:51;;;;;;;21.27;13.38;;;;;;;9.42;61.07;97561.88;4986184;28;20378;-65
2022/03/30 02:58:17;;;;;;;21.35;14.13;;;;;;;9.47;61.31;97527.63;4986779;28;20030;-65
2022/03/30 03:00:42;;;;;;;21.23;13.90;;;;;;;9.56;61.24;97555.19;4983958;28;20034;-63
2022/03/30 03:03:09;;;;;;;18.17;13.95;;;;;;;9.59;61.17;97552.28;4982210;28;20346;-63
2022/03/30 03:05:36;;;;;;;19.52;13.82;;;;;;;9.47;60.18;97499.09;4985161;28;20093;-66
2022/03/30 03:08:03;;;;;;;20.98;13.13;;;;;;;9.87;60.29;97540.72;4980466;28;20109;-65
2022/03/30 03:10:30;;;;;;;19.70;13.68;;;;;;;9.80;60.22;97531.00;4983769;28;20038;-64
2022/03/30 03:12:55;;;;;;;20.13;12.82;;;;;;;9.86;60.35;97539.91;4982355;28;20026;-66
2022/03/30 03:15:22;;;;;;;22.88;13.88;;;;;;;9.86;60.72;97536.50;4982584;28;20037;-64
2022/03/30 03:17:47;;;;;;;19.20;13.25;;;;;;;9.97;60.20;97536.16;4980955;28;20036;-65
2022/03/30 03:20:13;;;;;;;22.05;14.13;;;;;;;9.75;60.93;97522.09;4981107;28;20405;-64
2022/03/30 03:22:39;;;;;;;21.88;13.82;;;;;;;9.87;61.41;97527.72;4985252;28;20035;-64
2022/03/30 03:25:05;;;;;;;21.70;13.30;;;;;;;9.88;61.25;97524.97;4965947;28;20047;-65
2022/03/30 03:27:30;;;;;;;21.10;13.02;;;;;;;9.95;60.13;97525.13;4988687;28;20548;-64
2022/03/30 03:29:56;;;;;;;21.92;14.20;;;;;;;10.03;60.30;97522.47;4986456;28;20046;-66
2022/03/30 03:32:22;;;;;;;20.33;14.35;;;;;;;10.04;60.20;97502.50;4986740;28;20481;-67
2022/03/30 03:34:48;;;;;;;20.52;13.27;;;;;;;9.84;59.94;97460.53;4983447;28;20026;-64
2022/03/30 03:37:13;;;;;;;19.63;13.80;;;;;;;10.17;60.17;97500.19;5001284;28;20042;-63
2022/03/30 03:39:40;;;;;;;22.70;15.15;;;;;;;10.26;59.59;97513.94;4986775;28;20040;-64
2022/03/30 03:42:05;;;;;;;25.23;14.00;;;;;;;10.15;59.73;97509.97;4984972;28;20034;-64
2022/03/30 03:44:31;;;;;;;23.42;15.13;;;;;;;10.12;60.17;97511.09;4980209;28;20056;-64
2022/03/30 03:46:56;;;;;;;24.88;15.35;;;;;;;10.23;60.03;97509.09;4984967;28;20116;-65
2022/03/30 03:49:22;;;;;;;22.58;15.88;;;;;;;10.25;60.30;97494.97;4986577;28;20053;-64
2022/03/30 03:51:47;;;;;;;27.42;17.95;;;;;;;10.30;61.34;97502.25;4983928;28;20050;-64
2022/03/30 03:54:12;;;;;;;26.45;17.10;;;;;;;9.82;60.71;97416.59;4985347;28;20591;-65
2022/03/30 03:56:38;;;;;;;25.73;17.23;;;;;;;10.33;61.95;97499.31;4986451;28;20026;-63
2022/03/30 03:59:04;;;;;;;27.30;18.70;;;;;;;10.35;61.83;97492.19;4983822;28;20757;-64
2022/03/30 04:01:29;;;;;;;27.50;19.40;;;;;;;10.27;62.37;97474.00;4985598;28;20030;-65
2022/03/30 04:03:56;;;;;;;29.30;18.80;;;;;;;10.31;63.36;97486.53;4982332;28;20034;-63
2022/03/30 04:06:22;;;;;;;31.15;20.30;;;;;;;10.38;64.79;97489.22;4985993;28;20080;-65
2022/03/30 04:08:48;;;;;;;31.88;21.05;;;;;;;10.41;66.58;97478.50;4983976;28;20113;-64
2022/03/30 04:11:14;;;;;;;31.38;22.23;;;;;;;10.60;66.99;97482.44;4976472;28;20158;-64
2022/03/30 04:13:40;;;;;;;28.52;22.08;;;;;;;10.70;67.06;97485.63;4966754;28;20034;-65
2022/03/30 04:16:05;;;;;;;34.53;22.05;;;;;;;10.68;67.62;97486.81;4996833;28;20665;-64
2022/03/30 04:18:31;;;;;;;30.58;22.45;;;;;;;10.72;67.65;97483.66;4994648;28;20049;-63
2022/03/30 04:20:56;;;;;;;30.60;21.80;;;;;;;10.57;67.75;97454.22;4972684;28;21018;-64
2022/03/30 04:23:21;;;;;;;35.17;22.60;;;;;;;10.43;68.10;97434.97;4986389;28;20041;-65
2022/03/30 04:25:47;;;;;;;29.70;21.70;;;;;;;10.87;66.90;97480.31;4983997;28;20029;-63
2022/03/30 04:28:15;;;;;;;31.15;22.00;;;;;;;10.76;67.60;97479.75;4984251;28;20034;-62
2022/03/30 04:30:41;;;;;;;32.42;21.60;;;;;;;10.80;67.74;97475.00;4981887;28;20033;-63
2022/03/30 04:33:06;;;;;;;34.47;23.50;;;;;;;10.57;68.17;97444.63;4983160;28;20046;-65
2022/03/30 04:35:32;;;;;;;31.30;22.38;;;;;;;10.76;68.32;97471.94;4982531;28;20037;-62
2022/03/30 04:37:58;;;;;;;31.20;23.13;;;;;;;10.89;67.79;97468.75;4982192;28;20405;-63
2022/03/30 04:40:25;;;;;;;34.35;23.50;;;;;;;10.89;68.28;97475.75;4985467;28;20037;-66
2022/03/30 04:42:51;;;;;;;33.40;22.88;;;;;;;10.88;68.52;97474.97;4985172;28;20042;-66
2022/03/30 04:45:17;;;;;;;34.55;23.63;;;;;;;10.89;68.82;97471.34;4985754;28;20590;-64
2022/03/30 04:47:43;;;;;;;30.73;21.77;;;;;;;11.00;67.51;97466.72;4988865;28;20053;-62
2022/03/30 04:50:12;;;;;;;29.70;22.17;;;;;;;10.97;68.39;97480.91;4983742;28;20045;-62
2022/03/30 04:52:38;;;;;;;;;;;;;;;11.02;68.14;97483.78;4981502;28;20030;-63
2022/03/30 04:55:05;;;;;;;34.42;21.90;;;;;;;10.99;68.49;97485.91;4986220;28;20672;-63
2022/03/30 04:57:30;;;;;;;31.92;23.15;;;;;;;10.89;68.77;97468.75;4985110;28;20176;-65
2022/03/30 04:59:56;;;;;;;35.67;23.85;;;;;;;10.96;69.89;97474.88;4988632;28;20030;-64
2022/03/30 05:02:22;;;;;;;38.92;25.50;;;;;;;10.91;71.06;97476.38;4990918;28;20034;-65
2022/03/30 05:04:47;;;;;;;33.50;24.10;;;;;;;10.77;71.53;97446.75;4981989;28;20034;-65
2022/03/30 05:07:14;;;;;;;35.97;26.23;;;;;;;10.56;73.23;97442.19;4978802;28;20038;-65
2022/03/30 05:09:40;;;;;;;36.90;26.67;;;;;;;10.89;73.09;97483.56;4968689;28;20050;-63
2022/03/30 05:12:05;;;;;;;36.38;27.00;;;;;;;10.92;73.04;97481.41;4977770;28;20118;-63
2022/03/30 05:14:32;;;;;;;33.17;25.13;;;;;;;10.83;74.33;97471.25;4984479;28;20057;-63
2022/03/30 05:16:59;;;;;;;36.35;26.40;;;;;;;10.91;75.02;97479.78;4977983;28;20447;-61
2022/03/30 05:19:24;;;;;;;35.60;25.45;;;;;;;10.87;74.97;97482.94;4942472;28;20034;-64
2022/03/30 05:21:50;;;;;;;38.17;25.73;;;;;;;10.75;75.13;97478.13;4986599;28;20038;-64
2022/03/30 05:24:16;;;;;;;38.83;26.73;;;;;;;10.83;74.98;97479.88;5000045;28;20062;-63
2022/03/30 05:26:41;;;;;;;40.13;27.73;;;;;;;10.80;75.24;97477.59;4979493;28;20088;-63
2022/03/30 05:29:06;;;;;;;39.00;28.08;;;;;;;10.43;76.29;97437.56;4985677;28;20120;-66
2022/03/30 05:31:32;;;;;;;39.05;27.60;;;;;;;10.71;76.24;97494.25;4983773;28;20030;-65
2022/03/30 05:33:57;;;;;;;37.33;28.25;;;;;;;10.75;76.20;97495.50;4981653;28;20064;-67
2022/03/30 05:36:23;;;;;;;36.17;28.10;;;;;;;10.62;77.28;97495.28;4982838;28;20046;-65
2022/03/30 05:38:50;;;;;;;42.33;29.33;;;;;;;10.27;78.01;97429.84;4983383;28;20034;-62
2022/03/30 05:41:18;;;;;;;39.75;29.10;;;;;;;10.44;77.76;97461.75;4973978;28;20029;-64
2022/03/30 05:43:44;;;;;;;40.38;29.05;;;;;;;10.46;79.14;97489.22;4973697;28;20085;-62
2022/03/30 05:46:09;;;;;;;42.60;29.52;;;;;;;10.43;79.64;97491.34;4980282;28;20090;-64
2022/03/30 05:48:35;;;;;;;41.83;29.83;;;;;;;10.33;80.05;97468.97;4963589;28;20034;-63
2022/03/30 05:51:01;;;;;;;41.03;28.55;;;;;;;10.62;79.59;97498.69;4980362;28;20026;-64
2022/03/30 05:53:26;;;;;;;40.55;30.02;;;;;;;10.51;80.62;97507.69;4984110;28;20697;-63
2022/03/30 05:55:52;;;;;;;45.40;30.80;;;;;;;10.26;81.23;97474.97;4982900;28;20441;-62
2022/03/30 05:58:17;;;;;;;41.85;31.25;;;;;;;10.43;81.73;97499.94;4984046;28;20466;-64
2022/03/30 06:00:43;;;;;;;40.15;30.20;;;;;;;10.20;81.80;97458.28;4983187;28;20034;-62
2022/03/30 06:03:10;;;;;;;42.13;31.10;;;;;;;10.49;82.42;97503.63;4981779;28;20046;-63
2022/03/30 06:05:36;;;;;;;39.10;30.30;;;;;;;10.17;83.08;97466.44;4981209;28;20026;-65
2022/03/30 06:08:02;;;;;;;43.10;31.75;;;;;;;10.37;83.71;97509.22;4982657;28;20145;-65
2022/03/30 06:10:28;;;;;;;41.55;30.00;;;;;;;10.51;83.52;97506.88;4981244;28;20452;-64
2022/03/30 06:12:55;;;;;;;43.97;30.70;;;;;;;10.41;83.90;97499.31;4979393;28;20056;-67
2022/03/30 06:15:20;;;;;;;44.38;31.23;;;;;;;10.66;83.87;97507.78;4982355;28;20038;-65
2022/03/30 06:17:47;;;;;;;45.55;32.65;;;;;;;10.57;84.75;97508.81;4963707;28;20034;-66
2022/03/30 06:20:13;;;;;;;41.78;30.70;;;;;;;10.22;85.08;97471.09;4984023;28;20456;-63
2022/03/30 06:22:41;;;;;;;44.70;30.27;;;;;;;10.51;84.78;97515.50;4982778;28;20125;-65
2022/03/30 06:25:09;;;;;;;42.75;31.90;;;;;;;10.56;85.07;97518.38;4982927;28;20037;-66
2022/03/30 06:27:36;;;;;;;42.45;30.90;;;;;;;10.42;86.08;97520.88;4983358;28;20109;-66
2022/03/30 06:30:03;;;;;;;39.80;30.75;;;;;;;10.47;86.76;97513.41;4981599;28;20493;-66
2022/03/30 06:32:29;;;;;;;41.63;29.65;;;;;;;10.43;87.25;97514.72;4968310;28;20048;-67
2022/03/30 06:34:55;;;;;;;43.92;30.08;;;;;;;10.29;87.89;97490.22;4993292;28;20512;-64
2022/03/30 06:37:20;;;;;;;39.90;28.40;;;;;;;10.45;87.50;97513.56;4983237;28;20030;-66
2022/03/30 06:39:45;;;;;;;43.15;30.33;;;;;;;10.61;87.25;97519.66;4981806;28;20441;-67
2022/03/30 06:42:11;;;;;;;43.42;29.95;;;;;;;10.47;87.42;97518.59;4984109;28;20039;-66
2022/03/30 06:44:37;;;;;;;41.28;29.60;;;;;;;10.44;87.85;97524.97;4983271;28;20216;-66
2022/03/30 06:47:03;;;;;;;36.97;27.85;;;;;;;10.38;88.23;97520.41;4981729;28;20065;-65
2022/03/30 06:49:28;;;;;;;40.72;27.90;;;;;;;10.44;88.30;97524.13;4991300;28;20026;-66
2022/03/30 06:51:54;;;;;;;40.22;29.00;;;;;;;10.45;89.32;97523.97;4981825;28;20172;-66
2022/03/30 06:54:19;;;;;;;38.83;28.42;;;;;;;10.29;89.49;97517.00;4984932;28;20035;-65
2022/03/30 06:56:45;;;;;;;38.20;28.40;;;;;;;10.23;90.02;97528.09;4981581;28;20037;-66
2022/03/30 06:59:13;;;;;;;37.35;28.15;;;;;;;10.20;90.00;97523.22;4984139;28;20031;-65
2022/03/30 07:01:38;;;;;;;39.78;26.88;;;;;;;10.30;89.29;97516.03;4984532;28;20045;-65
2022/03/30 07:04:04;;;;;;;37.35;29.23;;;;;;;10.37;88.70;97518.81;4998411;28;20038;-63
2022/03/30 07:06:30;;;;;;;43.50;31.25;;;;;;;10.18;89.46;97515.63;4997853;28;20068;-62
2022/03/30 07:11:39;;;;;;;41.22;30.65;;;;;;;10.03;90.59;97513.91;4983171;28;20045;-66
2022/03/30 07:14:04;;;;;;;42.20;30.70;;;;;;;9.92;91.58;97520.25;5001584;28;20030;-64
2022/03/30 07:16:30;;;;;;;46.00;32.45;;;;;;;9.86;92.10;97515.75;4982806;28;20042;-63
2022/03/30 07:18:56;;;;;;;44.60;33.30;;;;;;;9.88;92.73;97512.00;5003546;28;20045;-63
2022/03/30 07:21:21;;;;;;;43.72;32.53;;;;;;;9.82;93.12;97516.06;4987600;28;20093;-63
2022/03/30 07:23:46;;;;;;;46.30;34.20;;;;;;;9.84;92.95;97515.91;4985236;28;20030;-62
2022/03/30 07:26:12;;;;;;;47.72;31.90;;;;;;;9.95;92.15;97525.13;4978306;28;20062;-64
2022/03/30 07:28:38;;;;;;;46.35;33.08;;;;;;;9.93;92.31;97517.50;4984884;28;20026;-64
2022/03/30 07:31:03;;;;;;;48.25;34.28;;;;;;;9.92;93.58;97518.47;4986723;28;20451;-64
2022/03/30 07:33:29;;;;;;;46.00;33.17;;;;;;;9.88;93.47;97517.19;4966889;28;20499;-62
2022/03/30 07:35:55;;;;;;;48.15;35.10;;;;;;;9.92;93.72;97515.06;4986171;28;20042;-63
2022/03/30 07:38:21;;;;;;;51.90;38.17;;;;;;;9.50;95.22;97469.44;4986406;28;20377;-65
2022/03/30 07:40:48;;;;;;;55.70;40.33;;;;;;;9.66;95.61;97497.94;4987157;28;20031;-63
2022/03/30 07:43:15;;;;;;;51.70;37.25;;;;;;;9.74;96.11;97512.66;4969642;28;20023;-63
2022/03/30 07:45:41;;;;;;;50.13;34.05;;;;;;;9.57;96.56;97512.72;4976774;28;20054;-62
2022/03/30 07:48:08;;;;;;;47.45;34.25;;;;;;;9.66;95.87;97513.50;4985029;28;20066;-62
2022/03/30 07:50:35;;;;;;;42.90;31.70;;;;;;;9.57;95.03;97483.34;4986600;28;20116;-61
2022/03/30 07:53:00;;;;;;;44.22;31.30;;;;;;;9.80;94.88;97502.44;4986552;28;20370;-62
2022/03/30 07:55:27;;;;;;;46.60;32.53;;;;;;;9.79;95.43;97508.59;4987024;28;20556;-62
2022/03/30 07:57:52;;;;;;;41.97;31.15;;;;;;;9.57;95.11;97457.41;4986841;28;20109;-62
2022/03/30 08:00:18;;;;;;;43.13;31.45;;;;;;;9.76;95.49;97505.53;4984815;28;20141;-64
2022/03/30 08:02:45;;;;;;;44.70;33.38;;;;;;;9.87;95.19;97501.75;4980844;28;20023;-63
2022/03/30 08:05:13;;;;;;;42.38;31.92;;;;;;;9.76;95.15;97505.53;4984364;28;20037;-65
2022/03/30 08:07:49;;;;;;;38.10;29.48;;;;;;;9.84;94.22;97500.31;4985768;28;20070;-62
2022/03/30 08:10:14;;;;;;;44.90;33.17;;;;;;;9.91;93.79;97500.44;4970673;28;20042;-62
2022/03/30 08:12:40;;;;;;;40.72;31.10;;;;;;;9.99;93.30;97501.22;4988912;28;20114;-64
2022/03/30 08:15:06;;;;;;;40.90;30.77;;;;;;;10.04;93.08;97497.31;4986130;28;20378;-63
2022/03/30 08:17:32;;;;;;;44.05;31.45;;;;;;;10.06;93.46;97500.56;4981545;28;20459;-63
2022/03/30 08:19:59;;;;;;;43.17;31.83;;;;;;;9.99;93.94;97503.03;4985333;28;20034;-63
2022/03/30 08:22:28;;;;;;;45.65;34.03;;;;;;;10.00;94.18;97500.28;4969254;28;20488;-62
2022/03/30 08:25:00;;;;;;;46.20;34.53;;;;;;;10.04;94.93;97492.13;4994066;28;20026;-64
2022/03/30 08:27:27;;;;;;;44.22;33.65;;;;;;;10.08;95.36;97499.41;4985876;28;20042;-63
2022/03/30 08:29:53;;;;;;;44.58;33.08;;;;;;;10.10;93.92;97496.66;4986227;28;20085;-62
2022/03/30 08:32:21;;;;;;;43.42;33.63;;;;;;;10.20;94.75;97492.88;4985414;28;20038;-62
2022/03/30 08:34:47;;;;;;;43.20;32.35;;;;;;;10.11;94.46;97496.50;4992429;28;20429;-62
2022/03/30 08:37:13;;;;;;;47.75;33.20;;;;;;;10.15;95.36;97502.16;4984799;28;20054;-63
2022/03/30 08:39:38;;;;;;;43.95;32.88;;;;;;;10.11;95.42;97485.28;4986103;28;20068;-62
2022/03/30 08:42:06;;;;;;;39.85;31.95;;;;;;;10.18;93.49;97502.63;4983754;28;20041;-64
2022/03/30 08:44:32;;;;;;;43.03;32.47;;;;;;;10.17;94.78;97490.63;4985851;28;20030;-63
2022/03/30 08:46:58;;;;;;;44.13;31.58;;;;;;;10.12;94.14;97502.50;4984421;28;20034;-63
2022/03/30 08:49:24;;;;;;;45.03;32.47;;;;;;;10.09;93.72;97497.63;4985727;28;20049;-64
2022/03/30 08:51:50;;;;;;;43.92;32.55;;;;;;;9.85;93.94;97494.13;4982344;28;20034;-64
2022/03/30 08:54:18;;;;;;;43.90;33.08;;;;;;;9.82;94.89;97503.09;4985970;28;20032;-63
2022/03/30 08:56:44;;;;;;;41.03;30.35;;;;;;;9.81;93.91;97492.84;4979426;28;20045;-63
2022/03/30 08:59:16;;;;;;;37.83;28.98;;;;;;;9.76;93.81;97495.13;4982896;28;20116;-65
2022/03/30 09:01:43;;;;;;;39.90;30.27;;;;;;;9.59;95.13;97484.00;4984777;28;20071;-62
2022/03/30 09:04:12;;;;;;;39.95;30.15;;;;;;;9.46;96.56;97483.72;4980970;28;20061;-64
2022/03/30 09:06:48;;;;;;;41.40;31.67;;;;;;;9.41;98.57;97485.00;4995681;28;20469;-63
2022/03/30 09:09:15;;;;;;;41.47;31.67;;;;;;;9.36;97.70;97491.66;4983721;28;20667;-64
2022/03/30 09:11:41;;;;;;;43.15;33.08;;;;;;;9.40;99.17;97493.78;4983849;28;20041;-64
2022/03/30 09:14:08;;;;;;;42.20;31.92;;;;;;;9.31;97.26;97486.13;4986474;28;20407;-65
2022/03/30 09:16:44;;;;;;;45.45;32.17;;;;;;;9.31;98.50;97492.16;4982520;28;20030;-63
2022/03/30 09:19:12;;;;;;;42.75;31.13;;;;;;;9.35;99.39;97485.66;4985251;28;20104;-64
2022/03/30 09:21:49;;;;;;;46.20;33.15;;;;;;;9.45;100.00;97480.28;4982326;28;20034;-63
2022/03/30 09:24:17;;;;;;;45.17;33.00;;;;;;;9.48;99.60;97484.34;4984003;28;20023;-63
2022/03/30 09:26:43;;;;;;;42.78;33.17;;;;;;;9.55;99.75;97487.91;4984547;28;20481;-63
2022/03/30 09:29:09;;;;;;;43.17;32.67;;;;;;;9.48;99.64;97481.75;4982558;28;20041;-64
2022/03/30 09:31:36;;;;;;;45.40;33.60;;;;;;;9.35;100.00;97485.66;4987437;28;20031;-65
2022/03/30 09:34:06;;;;;;;43.58;33.55;;;;;;;9.34;100.00;97473.66;4982534;28;20113;-64
2022/03/30 09:36:33;;;;;;;43.20;33.00;;;;;;;9.15;100.00;97479.22;4994761;28;20039;-62
2022/03/30 09:38:59;;;;;;;48.28;34.95;;;;;;;9.17;100.00;97474.66;4992456;28;20027;-61
2022/03/30 09:41:24;;;;;;;47.10;33.13;;;;;;;9.03;100.00;97440.66;4984849;28;20026;-62
2022/03/30 09:44:01;;;;;;;44.50;32.83;;;;;;;9.04;100.00;97454.41;4982283;28;20038;-62
2022/03/30 09:46:27;;;;;;;43.85;32.53;;;;;;;9.01;100.00;97458.13;4983413;28;20037;-63
2022/03/30 09:48:53;;;;;;;43.20;32.50;;;;;;;8.98;100.00;97449.84;4984856;28;20468;-65
2022/03/30 09:51:24;;;;;;;39.95;30.85;;;;;;;9.12;100.00;97456.19;4981249;28;20516;-62
2022/03/30 09:53:50;;;;;;;42.75;30.52;;;;;;;9.13;100.00;97452.63;4984297;28;20149;-63
2022/03/30 09:56:23;;;;;;;40.88;30.75;;;;;;;9.21;100.00;97445.63;4995314;28;20522;-62
2022/03/30 09:58:49;;;;;;;41.10;31.05;;;;;;;9.14;100.00;97433.47;4981463;28;20031;-62
2022/03/30 10:01:22;;;;;;;40.25;30.83;;;;;;;8.78;100.00;97388.00;4983487;28;20025;-62
2022/03/30 10:03:54;;;;;;;41.65;31.38;;;;;;;9.02;100.00;97433.81;4967890;28;20046;-63
2022/03/30 10:06:28;;;;;;;45.53;32.25;;;;;;;8.98;100.00;97432.53;4975940;28;20024;-64
2022/03/30 10:08:54;;;;;;;42.20;31.40;;;;;;;8.95;100.00;97425.09;4979544;28;20113;-65
2022/03/30 10:11:21;;;;;;;40.67;31.33;;;;;;;9.08;100.00;97418.59;4989850;28;20027;-63
2022/03/30 10:13:53;;;;;;;41.25;31.85;;;;;;;8.85;100.00;97414.88;4980818;28;20089;-64
2022/03/30 10:16:20;;;;;;;43.05;31.27;;;;;;;8.88;100.00;97412.94;5008985;28;20030;-63
2022/03/30 10:18:47;;;;;;;44.63;32.45;;;;;;;8.91;100.00;97415.19;4983796;28;20142;-62
2022/03/30 10:21:51;;;;;;;43.63;31.15;;;;;;;8.94;100.00;97417.47;4972200;28;20041;-64
2022/03/30 10:24:38;;;;;;;45.22;32.75;;;;;;;8.98;100.00;97408.38;4953316;28;20050;-63
2022/03/30 10:27:27;;;;;;;40.00;30.52;;;;;;;9.04;100.00;97412.94;4939879;28;20077;-62
2022/03/30 10:29:55;;;;;;;34.65;25.02;;;;;;;8.84;96.36;97407.28;4991205;28;20034;-63
2022/03/30 10:32:23;;;;;;;30.92;22.70;;;;;;;9.00;95.10;97412.44;4991594;28;20397;-65
2022/03/30 10:34:50;;;;;;;29.33;23.13;;;;;;;9.01;94.20;97403.66;4984744;28;20509;-64
2022/03/30 10:37:23;;;;;;;35.03;25.13;;;;;;;9.13;96.62;97393.78;4997919;28;20034;-65
2022/03/30 10:40:04;;;;;;;38.90;28.73;;;;;;;9.28;98.04;97393.09;4982045;28;20104;-64
2022/03/30 10:42:49;;;;;;;39.90;28.90;;;;;;;9.22;97.41;97390.19;4980919;28;20267;-64
2022/03/30 10:45:48;;;;;;;37.88;27.08;;;;;;;9.24;96.95;97390.84;4998029;28;20873;-64
2022/03/30 10:48:26;;;;;;;35.10;25.48;;;;;;;9.19;95.99;97379.34;4981613;28;20038;-62
2022/03/30 10:50:55;;;;;;;35.90;25.38;;;;;;;9.24;93.84;97387.44;4974847;28;20027;-65
2022/03/30 10:53:32;;;;;;;36.95;25.92;;;;;;;9.21;93.65;97390.34;4989658;28;20056;-64
2022/03/30 10:56:07;;;;;;;34.17;25.40;;;;;;;9.23;92.84;97370.25;4976375;28;20221;-63
2022/03/30 10:58:33;;;;;;;35.22;24.50;;;;;;;9.34;91.21;97371.69;4982184;28;20165;-65
2022/03/30 11:01:22;;;;;;;35.80;24.38;;;;;;;9.45;91.25;97373.09;4911816;28;20038;-64
2022/03/30 11:04:18;;;;;;;36.75;26.90;;;;;;;9.54;91.67;97372.91;4981538;28;20656;-65
2022/03/30 11:07:13;;;;;;;36.80;25.90;;;;;;;9.48;91.14;97370.19;4977653;28;20030;-64
2022/03/30 11:09:40;;;;;;;37.65;27.60;;;;;;;9.55;90.69;97366.75;4980072;28;20026;-65
2022/03/30 11:12:14;;;;;;;39.25;27.75;;;;;;;9.65;92.17;97360.53;4977938;28;20048;-64
2022/03/30 11:14:46;;;;;;;36.70;25.70;;;;;;;9.52;90.02;97369.66;4979176;28;20035;-66
2022/03/30 11:17:16;;;;;;;42.10;27.40;;;;;;;9.40;88.93;97363.22;4971556;28;20038;-63
2022/03/30 11:19:58;;;;;;;42.85;28.92;;;;;;;9.36;90.42;97361.94;4975587;28;20030;-65
2022/03/30 11:22:32;;;;;;;40.78;29.42;;;;;;;9.52;91.86;97355.88;4933877;28;20042;-62
2022/03/30 11:25:04;;;;;;;41.05;28.58;;;;;;;9.55;90.31;97351.16;4977566;28;20054;-63